createdAt,value
2022-12-03T00:03:21.264Z,100904.22
2022-12-03T00:08:22.932Z,100904.03
2022-12-03T00:13:24.483Z,100905.72
2022-12-03T00:18:26.102Z,100890.44
2022-12-03T00:23:27.826Z,100886.50
2022-12-03T00:28:29.425Z,100887.22
2022-12-03T00:33:31.544Z,100883.19
2022-12-03T00:38:33.124Z,100885.97
2022-12-03T00:43:34.678Z,100882.41
2022-12-03T00:48:36.321Z,100878.81
2022-12-03T00:53:37.916Z,100884.34
2022-12-03T00:58:39.499Z,100888.28
2022-12-03T01:03:41.020Z,100884.13
2022-12-03T01:08:42.571Z,100881.44
2022-12-03T01:13:44.163Z,100886.81
2022-12-03T01:18:46.266Z,100888.19
2022-12-03T01:23:47.887Z,100875.09
2022-12-03T01:28:49.436Z,100873.75
2022-12-03T01:33:50.990Z,100882.53
2022-12-03T01:38:52.539Z,100873.66
2022-12-03T01:43:54.762Z,100881.88
2022-12-03T01:48:56.654Z,100877.50
2022-12-03T01:53:59.160Z,100871.75
2022-12-03T01:59:00.741Z,100865.84
2022-12-03T02:04:02.337Z,100854.00
2022-12-03T02:09:04.041Z,100867.59
2022-12-03T02:14:08.496Z,100858.56
2022-12-03T02:19:29.390Z,100860.44
2022-12-03T02:24:43.204Z,100867.25
2022-12-03T02:29:44.761Z,100853.94
2022-12-03T02:34:46.343Z,100862.03
2022-12-03T02:39:51.301Z,100855.72
2022-12-03T02:44:53.726Z,100860.84
2022-12-03T02:49:55.806Z,100852.94
2022-12-03T02:54:57.860Z,100856.00
2022-12-03T02:59:59.467Z,100856.81
2022-12-03T03:05:01.082Z,100854.88
2022-12-03T03:10:03.901Z,100860.25
2022-12-03T03:15:06.664Z,100856.44
2022-12-03T03:20:09.357Z,100856.09
2022-12-03T03:25:14.257Z,100855.47
2022-12-03T03:30:16.248Z,100849.75
2022-12-03T03:35:17.996Z,100852.81
2022-12-03T03:40:21.060Z,100850.19
2022-12-03T03:45:27.329Z,100847.97
2022-12-03T03:50:31.625Z,100853.94
2022-12-03T03:55:33.964Z,100857.19
2022-12-03T04:00:36.329Z,100845.25
2022-12-03T04:05:38.139Z,100843.25
2022-12-03T04:10:57.927Z,100847.72
2022-12-03T04:15:59.575Z,100840.25
2022-12-03T04:21:19.552Z,100834.94
2022-12-03T04:26:39.719Z,100834.50
2022-12-03T04:32:00.263Z,100834.03
2022-12-03T04:37:01.833Z,100833.13
2022-12-03T04:42:03.953Z,100826.75
2022-12-03T04:47:09.233Z,100831.13
2022-12-03T04:52:11.950Z,100839.31
2022-12-03T04:57:13.498Z,100839.16
2022-12-03T05:02:15.117Z,100837.91
2022-12-03T05:07:16.670Z,100827.53
2022-12-03T05:12:18.216Z,100831.78
2022-12-03T05:17:19.796Z,100820.88
2022-12-03T05:22:21.333Z,100808.47
2022-12-03T05:27:24.197Z,100816.63
2022-12-03T05:32:26.157Z,100808.03
2022-12-03T05:37:27.734Z,100804.38
2022-12-03T05:42:47.788Z,100805.47
2022-12-03T05:47:49.388Z,100804.53
2022-12-03T05:52:51.466Z,100804.97
2022-12-03T05:57:53.023Z,100796.88
2022-12-03T06:02:55.126Z,100805.06
2022-12-03T06:07:56.925Z,100803.69
2022-12-03T06:12:58.709Z,100805.16
2022-12-03T06:18:00.261Z,100805.41
2022-12-03T06:23:01.855Z,100803.88
2022-12-03T06:28:03.532Z,100805.44
2022-12-03T06:33:05.076Z,100812.97
2022-12-03T06:38:06.693Z,100812.53
2022-12-03T06:43:09.203Z,100811.59
2022-12-03T06:48:10.762Z,100809.81
2022-12-03T06:53:12.323Z,100813.31
2022-12-03T06:58:13.905Z,100810.59
2022-12-03T07:03:15.664Z,100812.19
2022-12-03T07:08:17.337Z,100809.16
2022-12-03T07:13:18.978Z,100811.88
2022-12-03T07:18:20.565Z,100813.75
2022-12-03T07:23:22.105Z,100811.34
2022-12-03T07:28:23.640Z,100804.75
2022-12-03T07:33:25.246Z,100810.84
2022-12-03T07:38:26.828Z,100813.16
2022-12-03T07:43:28.395Z,100806.59
2022-12-03T07:48:29.965Z,100811.13
2022-12-03T07:53:33.260Z,100814.84
2022-12-03T07:58:34.802Z,100811.88
2022-12-03T08:03:36.354Z,100801.13
2022-12-03T08:08:37.935Z,100807.63
2022-12-03T08:13:39.549Z,100805.22
2022-12-03T08:18:41.128Z,100810.69
2022-12-03T08:23:42.919Z,100811.56
2022-12-03T08:28:44.456Z,100797.56
2022-12-03T08:33:50.294Z,100786.84
2022-12-03T08:38:59.514Z,100788.72
2022-12-03T08:44:01.113Z,100791.59
2022-12-03T08:49:02.891Z,100793.22
2022-12-03T08:54:13.026Z,100806.00
2022-12-03T08:59:30.129Z,100805.75
2022-12-03T09:04:46.780Z,100811.81
2022-12-03T09:09:48.329Z,100812.22
2022-12-03T09:14:49.916Z,100797.91
2022-12-03T09:19:51.460Z,100803.78
2022-12-03T09:24:53.168Z,100801.66
2022-12-03T09:29:54.923Z,100797.22
2022-12-03T09:34:57.062Z,100800.06
2022-12-03T09:39:58.735Z,100796.56
2022-12-03T09:45:00.544Z,100791.59
2022-12-03T09:50:02.122Z,100796.69
2022-12-03T09:55:07.799Z,100790.56
2022-12-03T10:00:16.906Z,100789.22
2022-12-03T10:05:22.010Z,100785.19
2022-12-03T10:10:24.405Z,100779.78
2022-12-03T10:15:26.194Z,100775.94
2022-12-03T10:20:27.758Z,100772.72
2022-12-03T10:25:29.303Z,100761.72
2022-12-03T10:30:30.977Z,100760.28
2022-12-03T10:35:41.195Z,100759.81
2022-12-03T10:40:42.901Z,100759.50
2022-12-03T10:45:45.871Z,100749.91
2022-12-03T10:51:04.834Z,100754.78
2022-12-03T10:56:07.827Z,100749.06
2022-12-03T11:01:19.602Z,100754.44
2022-12-03T11:06:22.724Z,100749.09
2022-12-03T11:11:28.387Z,100747.81
2022-12-03T11:16:39.058Z,100738.13
2022-12-03T11:22:05.359Z,100735.84
2022-12-03T11:27:13.386Z,100733.91
2022-12-03T11:32:39.653Z,100732.00
2022-12-03T11:37:41.458Z,100723.03
2022-12-03T11:42:43.742Z,100717.66
2022-12-03T11:48:23.715Z,100716.72
2022-12-03T11:53:27.182Z,100715.66
2022-12-03T11:58:29.956Z,100714.84
2022-12-03T12:03:34.494Z,100707.78
2022-12-03T12:08:38.958Z,100706.06
2022-12-03T12:13:43.602Z,100696.34
2022-12-03T12:18:52.390Z,100696.91
2022-12-03T12:23:56.372Z,100697.56
2022-12-03T12:28:57.940Z,100687.06
2022-12-03T12:33:59.594Z,100676.09
2022-12-03T12:39:01.260Z,100668.16
2022-12-03T12:44:05.515Z,100663.81
2022-12-03T12:49:16.222Z,100669.66
2022-12-03T12:54:18.313Z,100659.38
2022-12-03T12:59:21.285Z,100646.81
2022-12-03T13:04:24.137Z,100649.66
2022-12-03T13:09:26.414Z,100644.44
2022-12-03T13:14:33.464Z,100637.19
2022-12-03T13:19:46.082Z,100634.72
2022-12-03T13:24:54.309Z,100637.75
2022-12-03T13:30:17.002Z,100635.34
2022-12-03T13:35:31.537Z,100636.00
2022-12-03T13:40:35.960Z,100630.94
2022-12-03T13:45:38.879Z,100635.19
2022-12-03T13:50:43.906Z,100633.06
2022-12-03T13:55:48.650Z,100633.53
2022-12-03T14:00:50.280Z,100635.06
2022-12-03T14:05:51.888Z,100631.09
2022-12-03T14:10:59.924Z,100637.72
2022-12-03T14:16:02.280Z,100633.28
2022-12-03T14:21:03.904Z,100627.69
2022-12-03T14:26:05.576Z,100626.28
2022-12-03T14:31:07.209Z,100631.81
2022-12-03T14:36:09.287Z,100628.78
2022-12-03T14:41:30.847Z,100631.88
2022-12-03T14:46:32.454Z,100633.16
2022-12-03T14:51:34.129Z,100635.06
2022-12-03T14:56:35.734Z,100624.78
2022-12-03T15:01:37.453Z,100635.44
2022-12-03T15:06:39.124Z,100632.72
2022-12-03T15:11:45.963Z,100635.44
2022-12-03T15:16:48.191Z,100639.63
2022-12-03T15:21:49.892Z,100637.63
2022-12-03T15:26:53.332Z,100635.28
2022-12-03T15:31:54.912Z,100636.22
2022-12-03T15:36:56.531Z,100638.09
2022-12-03T15:41:58.149Z,100633.56
2022-12-03T15:46:59.772Z,100640.19
2022-12-03T15:52:01.361Z,100624.38
2022-12-03T15:57:02.960Z,100622.59
2022-12-03T16:02:04.752Z,100628.31
2022-12-03T16:07:07.110Z,100625.84
2022-12-03T16:12:09.408Z,100631.88
2022-12-03T16:17:11.008Z,100624.22
2022-12-03T16:22:13.213Z,100624.03
2022-12-03T16:27:14.902Z,100621.94
2022-12-03T16:32:16.603Z,100626.97
2022-12-03T16:37:18.181Z,100621.31
2022-12-03T16:42:22.385Z,100618.28
2022-12-03T16:47:26.933Z,100616.00
2022-12-03T16:52:30.949Z,100622.44
2022-12-03T16:57:34.036Z,100620.44
2022-12-03T17:02:35.821Z,100612.44
2022-12-03T17:07:37.471Z,100608.41
2022-12-03T17:13:07.639Z,100614.56
2022-12-03T17:18:00.974Z,100608.41
2022-12-03T17:23:02.779Z,100610.13
2022-12-03T17:28:04.487Z,100598.03
2022-12-03T17:33:06.073Z,100595.00
2022-12-03T17:38:09.024Z,100595.34
2022-12-03T17:43:10.579Z,100588.97
2022-12-03T17:48:12.182Z,100582.97
2022-12-03T17:53:13.738Z,100589.22
2022-12-03T17:58:15.290Z,100586.34
2022-12-03T18:03:16.824Z,100579.91
2022-12-03T18:08:18.461Z,100576.66
2022-12-03T18:13:20.232Z,100579.88
2022-12-03T18:18:21.823Z,100575.38
2022-12-03T18:23:23.364Z,100573.84
2022-12-03T18:28:25.155Z,100583.16
2022-12-03T18:33:26.951Z,100575.78
2022-12-03T18:38:31.075Z,100578.25
2022-12-03T18:43:32.717Z,100581.53
2022-12-03T18:48:34.263Z,100578.66
2022-12-03T18:53:35.804Z,100571.69
2022-12-03T18:58:37.672Z,100568.28
2022-12-03T19:03:39.215Z,100572.28
2022-12-03T19:08:41.000Z,100575.44
2022-12-03T19:13:42.621Z,100576.75
2022-12-03T19:18:44.390Z,100571.16
2022-12-03T19:24:16.035Z,100575.47
2022-12-03T19:29:08.576Z,100577.00
2022-12-03T19:34:10.137Z,100575.47
2022-12-03T19:39:11.760Z,100576.63
2022-12-03T19:44:14.809Z,100571.53
2022-12-03T19:49:18.501Z,100588.22
2022-12-03T19:54:20.190Z,100583.78
2022-12-03T19:59:21.742Z,100587.63
2022-12-03T20:04:23.324Z,100579.59
2022-12-03T20:09:24.958Z,100577.94
2022-12-03T20:14:26.564Z,100579.34
2022-12-03T20:19:28.137Z,100584.63
2022-12-03T20:24:29.772Z,100576.22
2022-12-03T20:29:31.367Z,100579.22
2022-12-03T20:34:35.764Z,100572.34
2022-12-03T20:39:37.355Z,100573.59
2022-12-03T20:44:38.898Z,100563.75
2022-12-03T20:49:40.451Z,100565.47
2022-12-03T20:54:42.077Z,100557.47
2022-12-03T20:59:43.698Z,100566.25
2022-12-03T21:04:45.257Z,100552.41
2022-12-03T21:09:46.895Z,100569.78
2022-12-03T21:14:48.473Z,100561.81
2022-12-03T21:19:50.152Z,100560.91
2022-12-03T21:24:51.801Z,100561.09
2022-12-03T21:29:53.984Z,100548.59
2022-12-03T21:34:55.913Z,100547.88
2022-12-03T21:39:57.537Z,100550.53
2022-12-03T21:44:59.251Z,100553.75
2022-12-03T21:50:00.961Z,100552.00
2022-12-03T21:55:02.622Z,100551.69
2022-12-03T22:00:08.978Z,100550.31
2022-12-03T22:05:13.464Z,100549.53
2022-12-03T22:10:15.097Z,100548.31
2022-12-03T22:15:19.156Z,100548.09
2022-12-03T22:20:21.101Z,100550.41
2022-12-03T22:25:22.666Z,100546.66
2022-12-03T22:30:24.268Z,100543.13
2022-12-03T22:35:25.837Z,100544.19
2022-12-03T22:40:27.484Z,100535.66
2022-12-03T22:45:29.108Z,100543.38
2022-12-03T22:50:30.676Z,100531.44
2022-12-03T22:55:32.295Z,100534.09
2022-12-03T23:00:41.601Z,100528.09
2022-12-03T23:05:43.170Z,100512.53
2022-12-03T23:10:47.124Z,100510.44
2022-12-03T23:15:50.777Z,100509.78
2022-12-03T23:20:54.172Z,100506.16
2022-12-03T23:26:06.753Z,100503.88
2022-12-03T23:31:20.703Z,100494.78
2022-12-03T23:36:24.197Z,100496.22
2022-12-03T23:41:25.868Z,100476.84
2022-12-03T23:46:28.338Z,100481.69
2022-12-03T23:51:30.125Z,100487.72
2022-12-03T23:56:31.830Z,100482.91
